Thunder radar more information blitzortung!


Radar de pluja more information rain snow radar


Visita la nostra xarxa de llocs de meteo:

Template documentation
and downloads

And another site



No particular awareness of the weather is required.    There are no Weather-warnings

Pagina Historial Weather Underground text

Diari Resum January 14, 2018 Unitats:  Mètric    Imperial   Tant
« Previous Dia
SegĂźent Dia »
Diari Setmana Mensual Anual Personalitzada
  Maxima: Minima: Media:
Temperatura: -17.8 °C -15.4 °C -13.3 °C
Punt de rosada: -17.8 °C -17.4 °C -16.6 °C
Humitat: Humidity % 60 % 66 %
Wind Speed: 0 km/h 0 km/h 8.7 km/h
RĂ fegues de vent: 0 km/h - -
Vent:- - WSW
Pression baro: 0 hPa 34293.4 hPa -
Precipitacions: 0 mm    
Historical Graphs
 
 
Dades de taula per January 14, 2018
Temps Temperatura Punt de rosada Pression baro Vent Wind Speed RĂ fegues de vent Humitat Rainfall Rate (Hourly)
-17.8 °C -17.8 °C 0 hPa Calm     Humidity % 0 mm
00:00 -14 °C -16.4 °C 34327.3 hPa NNE 3.7 km/h 3.7 km/h 74 % 0 mm
00:05 -14.5 °C -16.3 °C 34293.4 hPa West 5.1 km/h 7.7 km/h 79 % 0 mm
00:25 -14.6 °C -16.6 °C 34293.4 hPa WSW 5.1 km/h 5.1 km/h 78 % 0 mm
00:35 -14.8 °C -16.7 °C 34293.4 hPa WSW 2.6 km/h 5.1 km/h 78 % 0 mm
00:45 -14.8 °C -16.7 °C 34293.4 hPa WSW 2.6 km/h 10.3 km/h 78 % 0 mm
00:55 -14.8 °C -16.8 °C 34293.4 hPa SW 2.6 km/h 5.1 km/h 78 % 0 mm
01:05 -14.9 °C -16.8 °C 34293.4 hPa SW 5.1 km/h 5.1 km/h 78 % 0 mm
01:15 -15 °C -16.9 °C 34293.4 hPa WSW 5.1 km/h 7.7 km/h 78 % 0 mm
01:25 -15.1 °C -17 °C 34327.3 hPa WSW 5.1 km/h 7.7 km/h 78 % 0 mm
01:35 -15.1 °C -17.1 °C 34327.3 hPa WSW 2.6 km/h 5.1 km/h 78 % 0 mm
01:45 -15.2 °C -17.1 °C 34327.3 hPa WSW 5.1 km/h 5.1 km/h 78 % 0 mm
01:55 -15.2 °C -17.3 °C 34327.3 hPa WSW 5.1 km/h 7.7 km/h 77 % 0 mm
02:05 -15.3 °C -17.3 °C 34293.4 hPa WSW 2.6 km/h 5.1 km/h 77 % 0 mm
02:25 -15.4 °C -17.4 °C 34327.3 hPa WSW 2.6 km/h 5.1 km/h 77 % 0 mm
02:35 -15.4 °C -17.4 °C 34327.3 hPa WSW 2.6 km/h 5.1 km/h 77 % 0 mm
02:45 -15.3 °C -17.3 °C 34327.3 hPa WSW 2.6 km/h 5.1 km/h 77 % 0 mm
02:55 -15.2 °C -17.2 °C 34327.3 hPa WSW 2.6 km/h 5.1 km/h 77 % 0 mm
03:05 -14.9 °C -16.8 °C 34327.3 hPa Calm     78 % 0 mm
03:15 -14.6 °C -16.6 °C 34327.3 hPa SW 2.6 km/h 7.7 km/h 77 % 0 mm
03:25 -14.4 °C -16.5 °C 34327.3 hPa WSW 2.6 km/h 5.1 km/h 77 % 0 mm
03:35 -14.3 °C -16.3 °C 34361.1 hPa WSW 5.1 km/h 7.7 km/h 77 % 0 mm
03:55 -13.9 °C -16.2 °C 34361.1 hPa WSW 5.1 km/h 5.1 km/h 75 % 0 mm
04:05 -13.9 °C -16.2 °C 34361.1 hPa WSW 5.1 km/h 7.7 km/h 75 % 0 mm
04:15 -13.5 °C -15.8 °C 34361.1 hPa WSW 7.7 km/h 7.7 km/h 75 % 0 mm
04:25 -13.1 °C -15.5 °C 34361.1 hPa WSW 5.1 km/h 7.7 km/h 74 % 0 mm
04:35 -12.9 °C -15.5 °C 34361.1 hPa WSW 5.1 km/h 15.6 km/h 73 % 0 mm
04:45 -12.5 °C -15.2 °C 34361.1 hPa WSW 2.6 km/h 7.7 km/h 72 % 0 mm
04:55 -12.8 °C -15.6 °C 34395 hPa SW 5.1 km/h 7.7 km/h 71 % 0 mm
05:05 -13.3 °C -16.2 °C 34395 hPa WSW 12.9 km/h 15.6 km/h 70 % 0 mm
05:15 -13.3 °C -16.3 °C 34395 hPa West 15.6 km/h 15.6 km/h 69 % 0 mm
05:20 -13.2 °C -16.2 °C 34395 hPa WSW 12.9 km/h 12.9 km/h 69 % 0 mm
11:29 -13.3 °C -16.3 °C 34395 hPa NNW 19.2 km/h 19.2 km/h 69 % 0 mm
11:53 -13.5 °C -16.4 °C 34395 hPa SW 19.6 km/h 19.6 km/h 69 % 0 mm
11:59 -13.4 °C -16.4 °C 34395 hPa West 15 km/h 15 km/h 69 % 0 mm
12:09 -13.1 °C -16.1 °C 34395 hPa WSW 9 km/h 9 km/h 69 % 0 mm
12:15 -13 °C -16.1 °C 34395 hPa WNW 9 km/h 9 km/h 68 % 0 mm
12:21 -13 °C -16.1 °C 34395 hPa NW 6 km/h 6.3 km/h 68 % 0 mm
12:27 -12.9 °C -16.1 °C 34395 hPa WNW 6 km/h 6 km/h 68 % 0 mm
12:34 -12.7 °C -15.8 °C 34395 hPa North 11.1 km/h 11.1 km/h 68 % 0 mm
12:42 -12.5 °C -15.6 °C 34395 hPa NNW 11.9 km/h 11.9 km/h 68 % 0 mm
12:59 -12.6 °C -15.9 °C 34361.1 hPa West 11.9 km/h 11.9 km/h 66 % 0 mm
13:06 -12.7 °C -16.2 °C 34361.1 hPa West 9 km/h 9 km/h 65 % 0 mm
13:12 -12.6 °C -16.1 °C 34361.1 hPa ENE 9 km/h 9 km/h 65 % 0 mm
13:26 -12.6 °C -16.1 °C 34361.1 hPa South 6 km/h 6 km/h 65 % 0 mm
13:40 -12.8 °C -16.1 °C 34361.1 hPa WNW 11.9 km/h 11.9 km/h 66 % 0 mm
14:01 -12.7 °C -16.1 °C 34361.1 hPa West 9 km/h 9 km/h 66 % 0 mm
14:16 -12.8 °C -16.2 °C 34361.1 hPa West 23.8 km/h 23.8 km/h 65 % 0 mm
14:23 -12.7 °C -16.2 °C 34361.1 hPa West 11.9 km/h 11.9 km/h 65 % 0 mm
14:29 -12.6 °C -16 °C 34361.1 hPa SSW 9 km/h 9 km/h 65 % 0 mm
14:44 -12.1 °C -15.7 °C 34361.1 hPa WSW 15 km/h 15 km/h 64 % 0 mm
14:59 -12.1 °C -15.8 °C 34361.1 hPa WSW 15 km/h 15 km/h 63 % 0 mm
15:11 -12.2 °C -15.9 °C 34361.1 hPa WSW 22 km/h 22 km/h 63 % 0 mm
15:17 -12 °C -15.9 °C 34361.1 hPa WNW 12.7 km/h 12.7 km/h 62 % 0 mm
15:23 -11.9 °C -15.8 °C 34361.1 hPa WSW 15 km/h 15 km/h 62 % 0 mm
15:47 -12.1 °C -16.2 °C 34361.1 hPa West 15 km/h 15 km/h 60 % 0 mm
15:52 -12.1 °C -16.2 °C 34395 hPa WSW 15.3 km/h 15.3 km/h 60 % 0 mm
15:59 -12.1 °C -16.2 °C 34395 hPa WNW 9 km/h 9 km/h 60 % 0 mm
16:08 -12.1 °C -16.1 °C 34395 hPa West 11.9 km/h 11.9 km/h 61 % 0 mm
16:34 -12.5 °C -16.6 °C 34395 hPa SW 9 km/h 9 km/h 60 % 0 mm
16:47 -12.5 °C -16.6 °C 34395 hPa ENE 15 km/h 15 km/h 60 % 0 mm
16:58 -12.6 °C -16.7 °C 34395 hPa WNW 9 km/h 9 km/h 60 % 0 mm
17:05 -12.6 °C -16.7 °C 34395 hPa WNW 11.9 km/h 11.9 km/h 60 % 0 mm
17:21 -12.9 °C -16.8 °C 34395 hPa WSW 9 km/h 9 km/h 61 % 0 mm
17:36 -12.9 °C -16.9 °C 34395 hPa WSW 9.3 km/h 9.3 km/h 61 % 0 mm
18:07 -12.9 °C -16.9 °C 34395 hPa WSW 9.3 km/h 9.3 km/h 61 % 0 mm
18:19 -12.9 °C -16.9 °C 34395 hPa WSW 9.3 km/h 9.3 km/h 61 % 0 mm
18:31 -12.9 °C -16.9 °C 34395 hPa WSW 9.3 km/h 9.3 km/h 61 % 0 mm
18:51 -12.9 °C -16.9 °C 34395 hPa WSW 9.3 km/h 9.3 km/h 61 % 0 mm
19:00 -12.9 °C -16.9 °C 34395 hPa WSW 9.3 km/h 9.3 km/h 61 % 0 mm
19:12 -12.9 °C -16.9 °C 34395 hPa WSW 9.3 km/h 9.3 km/h 61 % 0 mm
19:19 -12.9 °C -16.9 °C 34395 hPa WSW 9.3 km/h 9.3 km/h 61 % 0 mm
19:29 -12.9 °C -16.9 °C 34395 hPa WSW 9.3 km/h 9.3 km/h 61 % 0 mm
19:41 -12.9 °C -16.9 °C 34395 hPa WSW 9.3 km/h 9.3 km/h 61 % 0 mm
19:47 -12.9 °C -16.9 °C 34395 hPa WSW 9.3 km/h 9.3 km/h 61 % 0 mm
19:52 -12.9 °C -16.9 °C 34395 hPa WSW 9.3 km/h 9.3 km/h 61 % 0 mm
20:05 -12.9 °C -16.9 °C 34395 hPa WSW 9.3 km/h 9.3 km/h 61 % 0 mm
20:11 -12.9 °C -16.9 °C 34395 hPa WSW 9.3 km/h 9.3 km/h 61 % 0 mm
20:17 -12.9 °C -16.9 °C 34395 hPa WSW 9.3 km/h 9.3 km/h 61 % 0 mm
20:22 -12.9 °C -16.9 °C 34395 hPa WSW 9.3 km/h 9.3 km/h 61 % 0 mm
20:27 -12.9 °C -16.9 °C 34395 hPa WSW 9.3 km/h 9.3 km/h 61 % 0 mm
20:36 -12.9 °C -16.9 °C 34395 hPa WSW 9.3 km/h 9.3 km/h 61 % 0 mm
21:04 -12.9 °C -16.9 °C 34395 hPa WSW 9.3 km/h 9.3 km/h 61 % 0 mm
21:10 -12.9 °C -16.9 °C 34395 hPa WSW 9.3 km/h 9.3 km/h 61 % 0 mm
21:24 -12.9 °C -16.9 °C 34395 hPa WSW 9.3 km/h 9.3 km/h 61 % 0 mm
21:36 -12.9 °C -16.9 °C 34395 hPa WSW 9.3 km/h 9.3 km/h 61 % 0 mm
22:06 -12.9 °C -16.9 °C 34395 hPa WSW 9.3 km/h 9.3 km/h 61 % 0 mm
22:12 -12.9 °C -16.9 °C 34395 hPa WSW 9.3 km/h 9.3 km/h 61 % 0 mm
22:24 -12.9 °C -16.9 °C 34395 hPa WSW 9.3 km/h 9.3 km/h 61 % 0 mm
22:38 -12.9 °C -16.9 °C 34395 hPa WSW 9.3 km/h 9.3 km/h 61 % 0 mm
22:43 -12.9 °C -16.9 °C 34395 hPa WSW 9.3 km/h 9.3 km/h 61 % 0 mm
22:50 -12.9 °C -16.9 °C 34395 hPa WSW 9.3 km/h 9.3 km/h 61 % 0 mm
22:57 -12.9 °C -16.9 °C 34395 hPa WSW 9.3 km/h 9.3 km/h 61 % 0 mm
23:16 -12.9 °C -16.9 °C 34395 hPa WSW 9.3 km/h 9.3 km/h 61 % 0 mm
23:40 -12.9 °C -16.9 °C 34395 hPa WSW 9.3 km/h 9.3 km/h 61 % 0 mm
Meteo Sesrovires
Elogis d' Weather Underground - 2 mb

Guio original per  Jim McMurry - jmcmurry@mwt.net Adaptat per a la plantilla per  Wim van der Kuil - Leuven-Template.eu

Trobareu la nostra informacio del temps tambe a:

Weather Underground

AWEKAS